Time;durP1;ratioP1;P1;durP2;ratioP2;P2;SDS_P1;SDS_P2;PMS_P1;PMS_P2;Temp;Humidity;BMP_temperature;BMP_pressure;BME280_temperature;BME280_humidity;BME280_pressure;Samples;Min_cycle;Max_cycle;Signal;HPM_P1;HPM_P2
2023/06/13 00:02:01;;;;;;;4.38;1.55;;;19.10;75.40;;;;;;5140472;27;20119;-56
2023/06/13 00:04:30;;;;;;;8.63;2.00;;;19.10;75.50;;;;;;5158505;27;20107;-56
2023/06/13 00:06:57;;;;;;;7.05;1.95;;;19.00;75.40;;;;;;5158703;27;20082;-56
2023/06/13 00:09:24;;;;;;;3.03;1.20;;;19.00;75.50;;;;;;5158907;27;20039;-56
2023/06/13 00:11:50;;;;;;;4.30;2.00;;;19.00;75.50;;;;;;5139988;27;20401;-56
2023/06/13 00:14:17;;;;;;;3.85;1.60;;;19.00;75.50;;;;;;5158416;27;20126;-56
2023/06/13 00:16:44;;;;;;;3.67;1.55;;;18.90;75.60;;;;;;5140080;27;20047;-56
2023/06/13 00:19:11;;;;;;;3.92;1.63;;;18.90;75.80;;;;;;5158765;27;20076;-56
2023/06/13 00:21:38;;;;;;;2.72;1.25;;;18.80;75.90;;;;;;5158409;27;20043;-56
2023/06/13 00:24:04;;;;;;;3.42;1.55;;;18.70;76.10;;;;;;5158410;27;20398;-56
2023/06/13 00:26:30;;;;;;;3.60;1.60;;;18.70;76.20;;;;;;5158162;27;20121;-56
2023/06/13 00:28:55;;;;;;;4.05;1.52;;;18.70;76.30;;;;;;5140035;27;20179;-56
2023/06/13 00:31:21;;;;;;;3.95;1.50;;;18.60;76.40;;;;;;5139826;27;20039;-56
2023/06/13 00:33:50;;;;;;;2.88;1.55;;;18.60;76.50;;;;;;5140040;27;20053;-56
2023/06/13 00:36:20;;;;;;;4.07;1.60;;;18.60;76.60;;;;;;5136540;27;20061;-56
2023/06/13 00:38:49;;;;;;;2.90;1.20;;;18.50;76.60;;;;;;5137341;27;20050;-56
2023/06/13 00:41:15;;;;;;;4.43;1.52;;;18.50;76.60;;;;;;5137284;27;20043;-56
2023/06/13 00:43:40;;;;;;;3.78;1.70;;;18.50;76.60;;;;;;5137084;27;20134;-56
2023/06/13 00:46:06;;;;;;;3.67;1.67;;;18.40;76.50;;;;;;5137177;27;20149;-56
2023/06/13 00:48:33;;;;;;;4.55;1.67;;;18.40;76.60;;;;;;5137405;27;20463;-56
2023/06/13 00:51:02;;;;;;;3.53;1.70;;;18.30;76.50;;;;;;5137152;27;20057;-56
2023/06/13 00:53:31;;;;;;;4.07;1.85;;;18.40;76.80;;;;;;5137040;27;20043;-56
2023/06/13 00:55:59;;;;;;;3.53;1.80;;;18.30;76.80;;;;;;5137069;27;20497;-56
2023/06/13 00:58:25;;;;;;;3.72;1.70;;;18.30;76.70;;;;;;5136840;27;20047;-55
2023/06/13 01:00:53;;;;;;;3.20;1.52;;;18.30;76.70;;;;;;5137007;27;20045;-56
2023/06/13 01:03:19;;;;;;;3.25;1.45;;;18.20;76.80;;;;;;5136939;27;20436;-56
2023/06/13 01:05:47;;;;;;;5.40;1.85;;;18.20;76.90;;;;;;5135887;27;20051;-56
2023/06/13 01:08:21;;;;;;;4.20;1.73;;;18.10;77.00;;;;;;5136842;27;20043;-56
2023/06/13 01:10:59;;;;;;;3.65;1.70;;;18.10;77.20;;;;;;5135648;27;20051;-56
2023/06/13 01:13:47;;;;;;;4.65;2.00;;;18.00;77.20;;;;;;5136797;27;20085;-56
2023/06/13 01:16:15;;;;;;;;;;;18.00;77.30;;;;;;5137010;27;20117;-56
2023/06/13 01:18:43;;;;;;;4.20;1.83;;;17.90;77.40;;;;;;5136706;27;19988;-56
2023/06/13 01:21:10;;;;;;;5.43;2.17;;;17.90;77.40;;;;;;5136592;27;20043;-56
2023/06/13 01:23:39;;;;;;;4.28;1.90;;;17.80;77.60;;;;;;5136222;27;20043;-56
2023/06/13 01:26:20;;;;;;;6.63;2.15;;;17.80;77.70;;;;;;5136467;27;20043;-55
2023/06/13 01:28:51;;;;;;;3.60;1.70;;;17.80;77.80;;;;;;5135215;27;20050;-56
2023/06/13 01:31:19;;;;;;;4.70;2.00;;;17.70;77.90;;;;;;5136382;27;20461;-55
2023/06/13 01:33:46;;;;;;;4.00;2.17;;;17.70;78.20;;;;;;5136004;27;20050;-56
2023/06/13 01:36:12;;;;;;;4.55;1.83;;;17.60;78.20;;;;;;5141767;27;20058;-55
2023/06/13 01:38:39;;;;;;;4.68;1.88;;;17.60;78.30;;;;;;5156940;27;20129;-56
2023/06/13 01:41:05;;;;;;;3.78;1.95;;;17.50;78.50;;;;;;5156741;27;20046;-56
2023/06/13 01:43:31;;;;;;;3.92;1.85;;;17.50;78.50;;;;;;5156901;27;20047;-56
2023/06/13 01:46:08;;;;;;;4.57;2.08;;;17.50;78.50;;;;;;5156741;27;20038;-56
2023/06/13 01:48:59;;;;;;;5.65;2.00;;;17.50;78.50;;;;;;5156560;27;20043;-56
2023/06/13 01:51:38;;;;;;;4.13;1.92;;;17.50;78.50;;;;;;5113960;27;20050;-56
2023/06/13 01:54:09;;;;;;;3.92;1.80;;;17.50;78.40;;;;;;5156569;27;20039;-56
2023/06/13 01:56:37;;;;;;;3.63;1.95;;;17.50;78.30;;;;;;5138304;27;20051;-56
2023/06/13 01:59:06;;;;;;;4.50;2.00;;;17.50;78.30;;;;;;5156427;27;20043;-56
2023/06/13 02:01:34;;;;;;;4.13;2.20;;;17.50;78.30;;;;;;5156669;27;20138;-56
2023/06/13 02:04:01;;;;;;;6.43;2.28;;;17.50;78.30;;;;;;5156242;27;20131;-56
2023/06/13 02:06:28;;;;;;;5.03;1.90;;;17.40;78.50;;;;;;5156149;27;20494;-56
2023/06/13 02:08:55;;;;;;;4.50;1.90;;;17.40;78.50;;;;;;5138057;27;20060;-56
2023/06/13 02:11:21;;;;;;;4.32;1.90;;;17.40;78.60;;;;;;5156205;27;20550;-56
2023/06/13 02:13:48;;;;;;;5.72;1.90;;;17.40;78.80;;;;;;5155863;27;20047;-56
2023/06/13 02:16:14;;;;;;;4.03;1.73;;;17.50;79.30;;;;;;5137961;27;20092;-56
2023/06/13 02:18:40;;;;;;;4.13;1.80;;;17.40;79.40;;;;;;5155955;27;20371;-56
2023/06/13 02:21:06;;;;;;;5.13;1.73;;;17.40;79.20;;;;;;5156069;27;20054;-56
2023/06/13 02:23:32;;;;;;;4.28;1.83;;;17.50;79.20;;;;;;5137655;27;20434;-56
2023/06/13 02:25:57;;;;;;;4.72;2.08;;;17.40;79.50;;;;;;5155899;27;20089;-56
2023/06/13 02:28:23;;;;;;;5.03;2.55;;;17.40;79.90;;;;;;5156024;27;20046;-56
2023/06/13 02:30:49;;;;;;;4.85;2.00;;;17.40;80.10;;;;;;5137555;27;20039;-56
2023/06/13 02:33:15;;;;;;;3.72;2.03;;;17.40;79.90;;;;;;5155891;27;20038;-56
2023/06/13 02:35:42;;;;;;;5.22;2.20;;;17.30;80.00;;;;;;5155532;27;20083;-56
2023/06/13 02:38:07;;;;;;;3.92;1.90;;;17.30;80.20;;;;;;5155766;27;20054;-56
2023/06/13 02:40:36;;;;;;;4.78;2.22;;;17.20;80.40;;;;;;5155520;27;20050;-56
2023/06/13 02:43:02;;;;;;;4.43;2.17;;;17.20;80.70;;;;;;5155726;27;20038;-56
2023/06/13 02:45:27;;;;;;;4.03;1.92;;;17.10;80.40;;;;;;5137543;27;20508;-56
2023/06/13 02:47:54;;;;;;;5.90;2.60;;;17.10;80.50;;;;;;5155894;27;20086;-56
2023/06/13 02:50:20;;;;;;;5.68;2.53;;;17.10;80.70;;;;;;5137579;27;20086;-56
2023/06/13 02:52:47;;;;;;;4.82;2.10;;;17.00;81.10;;;;;;5155565;27;20109;-56
2023/06/13 02:55:13;;;;;;;4.28;1.98;;;17.00;80.50;;;;;;5155429;27;20055;-56
2023/06/13 02:57:39;;;;;;;3.65;1.83;;;17.00;80.60;;;;;;5155527;27;20042;-55
2023/06/13 03:00:11;;;;;;;4.63;1.90;;;16.90;80.60;;;;;;5155633;27;20054;-55
2023/06/13 03:02:37;;;;;;;4.18;1.85;;;16.80;80.80;;;;;;5155526;27;20042;-56
2023/06/13 03:05:08;;;;;;;3.88;1.83;;;16.80;81.30;;;;;;5137151;27;20050;-55
2023/06/13 03:07:33;;;;;;;4.25;2.17;;;16.80;81.60;;;;;;5155264;27;20043;-55
2023/06/13 03:10:01;;;;;;;4.72;2.00;;;16.80;81.70;;;;;;5155281;27;20057;-55
2023/06/13 03:12:26;;;;;;;6.10;2.30;;;16.70;81.30;;;;;;5137696;27;20493;-55
2023/06/13 03:14:52;;;;;;;4.18;2.00;;;16.70;81.60;;;;;;5136945;27;20090;-55
2023/06/13 03:17:18;;;;;;;4.82;2.28;;;16.60;81.20;;;;;;5155329;27;20046;-55
2023/06/13 03:19:44;;;;;;;4.18;2.00;;;16.60;81.00;;;;;;5155430;27;20116;-55
2023/06/13 03:22:14;;;;;;;4.75;2.20;;;16.50;80.90;;;;;;5155162;27;20488;-55
2023/06/13 03:24:44;;;;;;;5.00;2.10;;;16.50;80.80;;;;;;5155429;27;20043;-54
2023/06/13 03:27:12;;;;;;;4.25;2.05;;;16.40;81.00;;;;;;5155288;27;20082;-55
2023/06/13 03:29:41;;;;;;;5.05;1.90;;;16.40;80.90;;;;;;5155033;27;20163;-54
2023/06/13 03:32:11;;;;;;;5.50;2.40;;;16.40;80.90;;;;;;5155237;27;20079;-55
2023/06/13 03:34:38;;;;;;;3.75;1.98;;;16.40;80.80;;;;;;5137742;27;20081;-55
2023/06/13 03:37:05;;;;;;;4.45;2.30;;;16.30;80.70;;;;;;5158938;27;20055;-55
2023/06/13 03:39:31;;;;;;;4.00;2.30;;;16.30;80.70;;;;;;5159230;27;20057;-55
2023/06/13 03:41:58;;;;;;;3.97;1.90;;;16.30;80.80;;;;;;5159269;27;20150;-55
2023/06/13 03:44:23;;;;;;;4.22;2.03;;;16.30;81.20;;;;;;5140794;27;20042;-55
2023/06/13 03:46:49;;;;;;;4.53;2.13;;;16.30;81.50;;;;;;5159127;27;20053;-55
2023/06/13 03:49:15;;;;;;;4.65;2.35;;;16.40;81.90;;;;;;5158951;27;20046;-55
2023/06/13 03:51:41;;;;;;;4.78;2.22;;;16.40;81.40;;;;;;5159296;27;20507;-55
2023/06/13 03:54:07;;;;;;;5.40;2.40;;;16.40;81.20;;;;;;5158946;27;20432;-53
2023/06/13 03:56:33;;;;;;;4.80;2.60;;;16.30;80.80;;;;;;5158905;27;20035;-55
2023/06/13 03:58:58;;;;;;;7.00;2.42;;;16.30;80.60;;;;;;5158935;27;20166;-55
2023/06/13 04:01:24;;;;;;;4.07;2.10;;;16.40;80.40;;;;;;5140214;27;20051;-54
2023/06/13 04:03:50;;;;;;;4.63;2.00;;;16.40;80.80;;;;;;5158631;27;20043;-55
2023/06/13 04:06:15;;;;;;;4.37;2.10;;;16.40;80.00;;;;;;5158455;27;20082;-55
2023/06/13 04:08:41;;;;;;;3.83;1.77;;;16.40;80.50;;;;;;5140470;27;20295;-53
2023/06/13 04:11:07;;;;;;;5.50;2.63;;;16.50;81.00;;;;;;5158677;27;20276;-55
2023/06/13 04:13:32;;;;;;;4.90;2.10;;;16.50;80.70;;;;;;5158633;27;20046;-55
2023/06/13 04:15:58;;;;;;;4.78;2.50;;;16.50;81.20;;;;;;5140040;27;20137;-54
2023/06/13 04:18:24;;;;;;;6.15;2.25;;;16.60;81.40;;;;;;5140429;27;20049;-55
2023/06/13 04:20:53;;;;;;;;;;;16.70;81.40;;;;;;5140118;27;20042;-55
2023/06/13 04:23:19;;;;;;;4.93;2.13;;;16.70;82.80;;;;;;5158621;27;20010;-54
2023/06/13 04:25:45;;;;;;;3.90;1.90;;;16.80;81.80;;;;;;5158433;27;20042;-55
2023/06/13 04:28:14;;;;;;;4.68;2.25;;;16.80;82.10;;;;;;5158372;27;20083;-54
2023/06/13 04:30:46;;;;;;;4.70;2.08;;;16.90;82.50;;;;;;5158284;27;20446;-55
2023/06/13 04:33:17;;;;;;;4.03;2.00;;;16.90;82.90;;;;;;5158277;27;20064;-55
2023/06/13 04:35:49;;;;;;;4.40;1.88;;;16.90;82.70;;;;;;5158165;27;20419;-55
2023/06/13 04:38:20;;;;;;;4.60;2.05;;;16.90;82.30;;;;;;5140370;27;20103;-55
2023/06/13 04:40:46;;;;;;;4.18;2.00;;;16.90;82.70;;;;;;5158308;27;20076;-54
2023/06/13 04:43:14;;;;;;;4.38;2.10;;;16.90;82.10;;;;;;5139615;27;20500;-53
2023/06/13 04:45:43;;;;;;;4.32;1.95;;;16.90;82.00;;;;;;5156724;27;20046;-53
2023/06/13 04:48:09;;;;;;;5.80;2.35;;;16.90;82.00;;;;;;5139501;27;20039;-54
2023/06/13 04:50:37;;;;;;;;;;;16.80;82.20;;;;;;5158403;27;20053;-54
2023/06/13 04:53:07;;;;;;;5.10;1.92;;;16.80;82.40;;;;;;5157972;27;19973;-51
2023/06/13 04:55:35;;;;;;;4.85;2.63;;;16.80;82.30;;;;;;5157848;27;20129;-55
2023/06/13 04:58:01;;;;;;;4.25;1.73;;;16.80;82.30;;;;;;5157729;27;20049;-54
2023/06/13 05:00:27;;;;;;;4.38;1.77;;;16.80;82.40;;;;;;5157459;27;20043;-55
2023/06/13 05:02:55;;;;;;;4.28;1.60;;;16.90;82.80;;;;;;5157648;27;20042;-53
2023/06/13 05:05:22;;;;;;;3.97;1.67;;;16.90;82.60;;;;;;5157597;27;20078;-50
2023/06/13 05:07:55;;;;;;;4.30;1.77;;;17.00;82.60;;;;;;5157513;27;20043;-54
2023/06/13 05:10:25;;;;;;;3.85;1.67;;;17.10;82.50;;;;;;5157491;27;20054;-54
2023/06/13 05:12:51;;;;;;;4.55;1.90;;;17.40;82.10;;;;;;5157360;27;20126;-51
2023/06/13 05:15:18;;;;;;;5.32;1.95;;;17.70;81.50;;;;;;5157330;27;20034;-51
2023/06/13 05:17:48;;;;;;;3.10;1.50;;;18.10;80.90;;;;;;5157390;27;20081;-51
2023/06/13 05:20:14;;;;;;;4.35;1.75;;;18.70;79.30;;;;;;5157224;27;20039;-54
2023/06/13 05:22:41;;;;;;;4.20;1.88;;;19.20;78.10;;;;;;5157209;27;20047;-54
2023/06/13 05:25:11;;;;;;;4.47;1.88;;;19.20;77.80;;;;;;5138700;27;20043;-53
2023/06/13 05:27:38;;;;;;;4.60;2.05;;;19.00;78.10;;;;;;5157490;27;20086;-54
2023/06/13 05:30:06;;;;;;;3.60;1.60;;;18.90;78.50;;;;;;5157120;27;20042;-52
2023/06/13 05:32:32;;;;;;;3.30;1.85;;;19.00;78.50;;;;;;5138858;27;20042;-50
2023/06/13 05:34:58;;;;;;;4.63;1.90;;;19.10;78.60;;;;;;5156931;27;20043;-53
2023/06/13 05:37:23;;;;;;;3.78;1.70;;;19.10;78.70;;;;;;5156762;27;20624;-51
2023/06/13 05:39:49;;;;;;;3.85;1.65;;;19.10;78.90;;;;;;5156842;27;20561;-52
2023/06/13 05:42:15;;;;;;;3.97;1.88;;;19.10;78.60;;;;;;5157104;27;20042;-53
2023/06/13 05:44:40;;;;;;;3.00;1.50;;;19.20;78.50;;;;;;5157087;27;20499;-52
2023/06/13 05:47:06;;;;;;;3.53;1.70;;;19.20;78.30;;;;;;5156514;27;20050;-53
2023/06/13 05:49:32;;;;;;;4.00;1.70;;;19.30;78.10;;;;;;5156664;27;20082;-53
2023/06/13 05:51:58;;;;;;;3.65;1.75;;;19.30;78.10;;;;;;5156518;27;20074;-48
2023/06/13 05:54:23;;;;;;;4.70;1.70;;;19.40;78.00;;;;;;5156370;27;20389;-53
2023/06/13 05:56:49;;;;;;;3.85;1.40;;;19.40;77.40;;;;;;5120293;27;20051;-49
2023/06/13 05:59:15;;;;;;;4.63;1.70;;;19.40;77.70;;;;;;5156715;27;20085;-50
2023/06/13 06:01:45;;;;;;;4.35;1.33;;;19.50;76.80;;;;;;5156474;27;20500;-52
2023/06/13 06:04:11;;;;;;;3.50;1.42;;;19.60;76.20;;;;;;5156250;27;20042;-50
2023/06/13 06:06:37;;;;;;;2.92;1.33;;;19.60;75.60;;;;;;5156253;27;20041;-50
2023/06/13 06:09:04;;;;;;;3.30;1.35;;;19.70;75.60;;;;;;5156209;27;20051;-48
2023/06/13 06:11:30;;;;;;;3.40;1.40;;;19.80;75.40;;;;;;5156294;27;20117;-51
2023/06/13 06:13:56;;;;;;;3.55;1.27;;;19.90;75.30;;;;;;5156166;27;20125;-53
2023/06/13 06:16:22;;;;;;;3.35;1.17;;;19.90;74.40;;;;;;5156332;27;20164;-53
2023/06/13 06:18:48;;;;;;;3.65;1.50;;;20.00;73.90;;;;;;5138077;27;20091;-53
2023/06/13 06:21:14;;;;;;;;;;;20.00;73.70;;;;;;5156475;27;20095;-52
2023/06/13 06:23:42;;;;;;;2.97;1.35;;;20.10;73.00;;;;;;5155958;27;19923;-52
2023/06/13 06:26:08;;;;;;;2.80;1.13;;;20.20;73.40;;;;;;5156062;27;20046;-52
2023/06/13 06:28:34;;;;;;;3.45;1.42;;;20.30;73.10;;;;;;5156342;27;20053;-51
2023/06/13 06:31:00;;;;;;;3.38;1.33;;;20.40;72.20;;;;;;5103802;27;20390;-51
2023/06/13 06:33:27;;;;;;;3.15;1.40;;;20.50;71.90;;;;;;5155912;27;20039;-54
2023/06/13 06:35:53;;;;;;;4.13;1.48;;;20.60;71.20;;;;;;5155540;27;20070;-52
2023/06/13 06:38:19;;;;;;;4.72;1.23;;;20.60;71.30;;;;;;5155849;27;20054;-49
2023/06/13 06:40:46;;;;;;;2.47;1.15;;;20.70;71.60;;;;;;5137202;27;20068;-53
2023/06/13 06:43:11;;;;;;;3.28;1.30;;;20.70;71.30;;;;;;5155803;27;20101;-49
2023/06/13 06:45:37;;;;;;;4.68;1.17;;;20.80;71.80;;;;;;5155725;27;20042;-51
2023/06/13 06:48:03;;;;;;;2.85;1.13;;;20.90;71.90;;;;;;5137323;27;20477;-53
2023/06/13 06:50:29;;;;;;;;;;;21.10;71.70;;;;;;5156081;27;20451;-52
2023/06/13 06:52:55;;;;;;;3.15;1.30;;;21.30;70.80;;;;;;5155501;27;19922;-53
2023/06/13 06:55:21;;;;;;;2.00;0.90;;;21.40;70.40;;;;;;5155524;27;20078;-48
2023/06/13 06:57:46;;;;;;;3.80;1.13;;;21.40;70.10;;;;;;5137024;27;20042;-47
2023/06/13 07:00:14;;;;;;;2.67;1.15;;;21.40;69.90;;;;;;5155445;27;20065;-52
2023/06/13 07:02:43;;;;;;;2.25;1.02;;;21.50;69.00;;;;;;5155505;27;20046;-51
2023/06/13 07:05:09;;;;;;;2.03;0.80;;;21.50;68.70;;;;;;5136887;27;20135;-49
2023/06/13 07:07:36;;;;;;;2.05;0.90;;;21.60;68.50;;;;;;5137000;27;20046;-49
2023/06/13 07:10:04;;;;;;;;;;;21.60;68.60;;;;;;5154963;27;20043;-53
2023/06/13 07:12:32;;;;;;;2.45;1.10;;;21.90;68.40;;;;;;5155585;27;19930;-53
2023/06/13 07:14:58;;;;;;;2.88;1.00;;;22.20;68.10;;;;;;5155151;27;20053;-50
2023/06/13 07:17:24;;;;;;;3.10;1.40;;;22.40;68.00;;;;;;5155263;27;20049;-53
2023/06/13 07:19:49;;;;;;;3.03;1.17;;;22.50;67.70;;;;;;5155135;27;20043;-54
2023/06/13 07:22:15;;;;;;;2.42;1.23;;;22.60;67.30;;;;;;5155000;27;20082;-52
2023/06/13 07:24:41;;;;;;;3.03;1.30;;;22.60;66.60;;;;;;5155448;27;20038;-48
2023/06/13 07:27:07;;;;;;;2.40;1.20;;;22.80;65.80;;;;;;5155727;27;20078;-53
2023/06/13 07:29:33;;;;;;;3.00;1.33;;;23.10;65.40;;;;;;5155152;27;20043;-52
2023/06/13 07:32:00;;;;;;;;;;;23.30;65.20;;;;;;5155642;27;20051;-53
2023/06/13 07:34:26;;;;;;;3.35;1.20;;;23.30;65.10;;;;;;5155256;27;19964;-53
2023/06/13 07:36:54;;;;;;;3.67;1.40;;;23.20;65.40;;;;;;5155039;27;20050;-53
2023/06/13 07:39:20;;;;;;;2.70;1.35;;;23.10;65.80;;;;;;5155141;27;20047;-53
2023/06/13 07:41:48;;;;;;;3.00;1.27;;;23.10;65.80;;;;;;5119772;27;20047;-53
2023/06/13 07:44:14;;;;;;;3.40;1.30;;;23.00;65.70;;;;;;5155003;27;20054;-54
2023/06/13 07:46:40;;;;;;;4.90;1.58;;;23.00;65.80;;;;;;5155077;27;20059;-52
2023/06/13 07:49:06;;;;;;;2.95;1.33;;;23.00;66.00;;;;;;5155047;27;20166;-55
2023/06/13 07:51:32;;;;;;;4.47;1.55;;;23.00;65.70;;;;;;5154840;27;20525;-52
2023/06/13 07:53:58;;;;;;;3.55;1.63;;;23.00;65.70;;;;;;5154701;27;20470;-54
2023/06/13 07:56:23;;;;;;;3.47;1.40;;;23.00;65.20;;;;;;5154891;27;20043;-52
2023/06/13 07:58:49;;;;;;;4.35;1.42;;;23.00;65.10;;;;;;5155124;27;20054;-48
2023/06/13 08:01:15;;;;;;;2.97;1.42;;;23.00;65.30;;;;;;5154983;27;20119;-51
2023/06/13 08:03:43;;;;;;;2.83;1.40;;;23.00;65.20;;;;;;5154659;27;20093;-53
2023/06/13 08:06:09;;;;;;;3.95;1.40;;;23.00;65.30;;;;;;5154646;27;20401;-48
2023/06/13 08:08:34;;;;;;;2.75;1.20;;;23.00;65.30;;;;;;5154828;27;20043;-53
2023/06/13 08:11:00;;;;;;;3.10;1.30;;;23.10;65.50;;;;;;5136452;27;20129;-52
2023/06/13 08:13:26;;;;;;;2.72;1.27;;;23.10;65.00;;;;;;5155081;27;20042;-50
2023/06/13 08:15:51;;;;;;;3.28;1.33;;;23.10;65.10;;;;;;5154827;27;20118;-53
2023/06/13 08:18:17;;;;;;;3.08;1.20;;;23.10;65.10;;;;;;5154727;27;20086;-48
2023/06/13 08:20:43;;;;;;;4.10;1.30;;;23.20;65.20;;;;;;5155964;27;20047;-54
2023/06/13 08:23:08;;;;;;;3.22;1.30;;;23.20;64.90;;;;;;5158407;27;20079;-53
2023/06/13 08:25:34;;;;;;;2.92;1.05;;;23.20;64.90;;;;;;5140192;27;20046;-53
2023/06/13 08:28:00;;;;;;;3.13;1.23;;;23.20;64.60;;;;;;5158347;27;20573;-50
2023/06/13 08:30:26;;;;;;;2.80;1.27;;;23.20;64.50;;;;;;5158567;27;20073;-53
2023/06/13 08:32:53;;;;;;;2.60;1.42;;;23.20;65.00;;;;;;5158218;27;20412;-52
2023/06/13 08:35:22;;;;;;;3.00;1.40;;;23.20;64.40;;;;;;5157837;27;20043;-54
2023/06/13 08:37:47;;;;;;;4.30;1.60;;;23.30;63.70;;;;;;5140068;27;20057;-53
2023/06/13 08:40:15;;;;;;;3.25;1.33;;;23.30;63.70;;;;;;5158091;27;20047;-53
2023/06/13 08:42:43;;;;;;;4.53;1.52;;;23.30;63.70;;;;;;5158393;27;20142;-54
2023/06/13 08:45:09;;;;;;;3.00;1.50;;;23.30;63.70;;;;;;5157960;27;20039;-52
2023/06/13 08:47:35;;;;;;;;;;;23.30;63.40;;;;;;5139907;27;20082;-52
2023/06/13 08:50:01;;;;;;;4.45;1.50;;;23.40;62.70;;;;;;5158011;27;19919;-49
2023/06/13 08:52:38;;;;;;;3.00;1.30;;;23.40;62.90;;;;;;5158443;27;20072;-54
2023/06/13 08:55:08;;;;;;;4.00;1.50;;;23.40;63.20;;;;;;5158090;27;20039;-51
2023/06/13 08:57:36;;;;;;;3.03;1.33;;;23.40;63.80;;;;;;5157670;27;20049;-54
2023/06/13 09:00:06;;;;;;;2.80;1.50;;;23.40;63.90;;;;;;5157613;27;20111;-52
2023/06/13 09:02:32;;;;;;;3.60;1.30;;;23.40;64.60;;;;;;5157472;27;20398;-48
2023/06/13 09:04:59;;;;;;;3.17;1.20;;;23.40;64.90;;;;;;5157694;27;20121;-49
2023/06/13 09:07:25;;;;;;;4.53;1.50;;;23.40;64.90;;;;;;5157648;27;20461;-53
2023/06/13 09:09:53;;;;;;;4.40;1.40;;;23.30;64.40;;;;;;5157590;27;20038;-53
2023/06/13 09:12:20;;;;;;;4.15;1.50;;;23.30;64.40;;;;;;5157618;27;20043;-54
2023/06/13 09:14:46;;;;;;;4.32;1.48;;;23.20;64.20;;;;;;5157184;27;20115;-47
2023/06/13 09:17:12;;;;;;;2.95;1.35;;;23.20;64.50;;;;;;5157473;27;20047;-47
2023/06/13 09:19:37;;;;;;;3.97;1.25;;;23.20;65.10;;;;;;5157375;27;20049;-47
2023/06/13 09:22:03;;;;;;;3.70;1.30;;;23.30;65.10;;;;;;5157465;27;20046;-47
2023/06/13 09:24:32;;;;;;;3.40;1.17;;;23.30;65.10;;;;;;5138888;27;20054;-47
2023/06/13 09:27:01;;;;;;;3.28;1.35;;;23.30;64.50;;;;;;5157074;27;20070;-46
2023/06/13 09:29:34;;;;;;;3.40;1.38;;;23.30;64.50;;;;;;5156922;27;20117;-46
2023/06/13 09:32:01;;;;;;;3.25;1.45;;;23.30;64.60;;;;;;5156338;27;20099;-47
2023/06/13 09:34:30;;;;;;;3.15;1.38;;;23.30;64.90;;;;;;5138663;27;20489;-48
2023/06/13 09:36:57;;;;;;;3.33;1.38;;;23.30;64.20;;;;;;5138308;27;20442;-47
2023/06/13 09:39:28;;;;;;;3.33;1.70;;;23.30;64.10;;;;;;5157086;27;20042;-48
2023/06/13 09:41:59;;;;;;;2.33;1.20;;;23.30;64.10;;;;;;5156830;27;20046;-47
2023/06/13 09:44:25;;;;;;;2.90;1.20;;;23.30;64.10;;;;;;5156890;27;20038;-48
2023/06/13 09:46:52;;;;;;;;;;;23.30;63.50;;;;;;5157237;27;20500;-48
2023/06/13 09:49:18;;;;;;;3.27;1.20;;;23.30;63.90;;;;;;5156567;27;20360;-47
2023/06/13 09:51:47;;;;;;;2.70;1.27;;;23.30;63.80;;;;;;5156749;27;20129;-50
2023/06/13 09:54:14;;;;;;;3.50;1.42;;;23.20;63.90;;;;;;5156576;27;20053;-47
2023/06/13 09:56:42;;;;;;;4.10;1.73;;;23.30;64.40;;;;;;5137927;27;20100;-48
2023/06/13 09:59:14;;;;;;;3.70;1.30;;;23.30;64.70;;;;;;5138272;27;20042;-47
2023/06/13 10:01:41;;;;;;;3.38;1.13;;;23.30;65.00;;;;;;5156694;27;20047;-48
2023/06/13 10:04:06;;;;;;;3.08;1.23;;;23.30;65.30;;;;;;5156415;27;20042;-47
2023/06/13 10:06:32;;;;;;;2.42;1.10;;;23.30;65.30;;;;;;5156212;27;20046;-46
2023/06/13 10:08:58;;;;;;;2.80;1.10;;;23.30;65.30;;;;;;5156196;27;20043;-49
2023/06/13 10:11:28;;;;;;;2.25;1.17;;;23.30;65.30;;;;;;5138035;27;20355;-52
2023/06/13 10:14:07;;;;;;;2.75;1.40;;;23.30;65.20;;;;;;5156771;27;20137;-52
2023/06/13 10:16:39;;;;;;;3.17;1.30;;;23.30;65.50;;;;;;5156247;27;20039;-48
2023/06/13 10:19:06;;;;;;;2.58;1.17;;;23.40;65.60;;;;;;5156110;27;20035;-47
2023/06/13 10:21:35;;;;;;;3.42;1.60;;;23.40;65.90;;;;;;5156001;27;20046;-47
2023/06/13 10:24:02;;;;;;;3.85;1.50;;;23.50;66.10;;;;;;5138183;27;20485;-47
2023/06/13 10:26:43;;;;;;;3.13;1.25;;;23.50;65.70;;;;;;5155987;27;20046;-48
2023/06/13 10:29:17;;;;;;;2.28;1.08;;;23.50;65.80;;;;;;5156041;27;20049;-48
2023/06/13 10:31:46;;;;;;;3.38;1.30;;;23.60;65.60;;;;;;5155917;27;20401;-47
2023/06/13 10:34:42;;;;;;;2.67;1.10;;;23.70;65.30;;;;;;5155770;27;20085;-48
2023/06/13 10:37:38;;;;;;;4.38;1.75;;;23.70;64.80;;;;;;5155770;27;20089;-45
2023/06/13 10:40:23;;;;;;;2.60;1.30;;;23.80;64.90;;;;;;5155766;27;20485;-48
2023/06/13 10:42:59;;;;;;;4.15;1.30;;;23.90;65.50;;;;;;5155815;27;20557;-46
2023/06/13 10:45:27;;;;;;;2.80;1.02;;;24.00;66.40;;;;;;5137681;27;20050;-47
2023/06/13 10:47:52;;;;;;;2.53;1.10;;;24.10;66.80;;;;;;5137383;27;20043;-47
2023/06/13 10:50:20;;;;;;;;;;;24.20;66.70;;;;;;5156290;27;20051;-47
2023/06/13 10:52:48;;;;;;;3.05;1.25;;;24.40;66.30;;;;;;5155479;27;20379;-48
2023/06/13 10:55:22;;;;;;;2.10;1.00;;;24.50;66.20;;;;;;5155403;27;20042;-48
2023/06/13 10:57:52;;;;;;;3.35;1.00;;;24.60;66.40;;;;;;5155349;27;20107;-48
2023/06/13 11:00:29;;;;;;;3.20;1.30;;;24.70;65.90;;;;;;5155826;27;20043;-48
2023/06/13 11:02:58;;;;;;;2.00;1.10;;;24.80;65.70;;;;;;5155726;27;20046;-51
2023/06/13 11:05:25;;;;;;;2.58;1.10;;;24.90;65.30;;;;;;5155312;27;20401;-49
2023/06/13 11:07:55;;;;;;;2.90;1.10;;;24.90;64.90;;;;;;5155819;27;20068;-50
2023/06/13 11:10:22;;;;;;;2.97;1.13;;;25.00;64.90;;;;;;5155273;27;20046;-51
2023/06/13 11:12:49;;;;;;;2.15;1.00;;;25.00;64.40;;;;;;5155361;27;20102;-48
2023/06/13 11:15:27;;;;;;;4.07;1.38;;;25.00;64.20;;;;;;5155153;27;20043;-48
2023/06/13 11:18:07;;;;;;;3.17;1.10;;;25.00;64.30;;;;;;5155058;27;20503;-48
2023/06/13 11:20:34;;;;;;;2.13;1.08;;;25.00;64.30;;;;;;5155295;27;20039;-47
2023/06/13 11:23:00;;;;;;;2.17;0.90;;;25.00;64.40;;;;;;5155359;27;20074;-51
2023/06/13 11:25:26;;;;;;;2.35;0.90;;;25.00;64.70;;;;;;5155268;27;20389;-52
2023/06/13 11:27:52;;;;;;;;;;;25.00;64.20;;;;;;5155534;27;20043;-47
2023/06/13 11:30:18;;;;;;;3.05;1.08;;;25.00;64.00;;;;;;5155198;27;19926;-51
2023/06/13 11:32:44;;;;;;;2.70;1.15;;;25.00;64.30;;;;;;5155428;27;20043;-48
2023/06/13 11:35:10;;;;;;;;;;;25.10;64.30;;;;;;5155464;27;20050;-48
2023/06/13 11:37:44;;;;;;;2.78;0.90;;;25.10;64.20;;;;;;5155409;27;19919;-47
2023/06/13 11:40:27;;;;;;;2.55;0.95;;;25.20;64.40;;;;;;5137107;27;20058;-48
2023/06/13 11:42:53;;;;;;;2.25;0.85;;;25.30;64.10;;;;;;5136711;27;20553;-49
2023/06/13 11:45:22;;;;;;;2.40;1.08;;;25.50;64.10;;;;;;5155056;27;20049;-48
2023/06/13 11:47:57;;;;;;;2.33;0.95;;;25.60;63.70;;;;;;5136820;27;20038;-48
2023/06/13 11:50:27;;;;;;;2.72;1.00;;;25.60;63.00;;;;;;5155186;27;20083;-49
2023/06/13 11:53:03;;;;;;;2.33;0.80;;;25.70;63.40;;;;;;5155031;27;20099;-52
2023/06/13 11:55:29;;;;;;;2.10;0.93;;;25.80;63.00;;;;;;5155902;27;20121;-49
2023/06/13 11:57:56;;;;;;;2.90;1.23;;;25.90;62.70;;;;;;5158951;27;20078;-48
2023/06/13 12:00:26;;;;;;;2.63;1.10;;;25.90;62.70;;;;;;5158959;27;20129;-48
2023/06/13 12:02:52;;;;;;;1.67;0.85;;;25.90;62.40;;;;;;5158949;27;20086;-48
2023/06/13 12:05:19;;;;;;;1.98;0.85;;;25.90;62.00;;;;;;5158951;27;20043;-48
2023/06/13 12:07:45;;;;;;;2.95;1.10;;;26.00;62.90;;;;;;5158838;27;20050;-50
2023/06/13 12:10:13;;;;;;;3.20;0.90;;;26.10;62.20;;;;;;5158469;27;20054;-52
2023/06/13 12:12:39;;;;;;;2.13;0.98;;;26.20;62.40;;;;;;5140990;27;20374;-47
2023/06/13 12:15:07;;;;;;;3.45;1.05;;;26.30;62.20;;;;;;5158817;27;20035;-53
2023/06/13 12:17:33;;;;;;;2.50;1.10;;;26.40;62.00;;;;;;5158541;27;20043;-48
2023/06/13 12:20:12;;;;;;;2.67;1.00;;;26.40;61.80;;;;;;5158686;27;20121;-55
2023/06/13 12:22:38;;;;;;;2.15;0.90;;;26.50;61.30;;;;;;5158315;27;20047;-48
2023/06/13 12:25:04;;;;;;;2.00;0.85;;;26.40;61.20;;;;;;5158188;27;20042;-49
2023/06/13 12:27:31;;;;;;;3.08;0.90;;;26.50;61.00;;;;;;5140192;27;20057;-48
2023/06/13 12:30:08;;;;;;;3.47;1.02;;;26.50;60.50;;;;;;5158302;27;20034;-46
2023/06/13 12:32:37;;;;;;;3.08;1.00;;;26.50;60.40;;;;;;5158487;27;20054;-53
2023/06/13 12:35:03;;;;;;;3.33;1.05;;;26.60;60.70;;;;;;5157863;27;20054;-47
2023/06/13 12:37:34;;;;;;;4.22;0.80;;;26.60;60.40;;;;;;5139441;27;20054;-48
2023/06/13 12:40:03;;;;;;;2.47;0.90;;;26.60;60.00;;;;;;5140011;27;20129;-48
2023/06/13 12:42:29;;;;;;;3.33;1.00;;;26.60;60.30;;;;;;5139886;27;20042;-54
2023/06/13 12:44:57;;;;;;;2.00;0.80;;;26.60;60.30;;;;;;5157913;27;20035;-49
2023/06/13 12:47:23;;;;;;;3.38;1.05;;;26.60;60.50;;;;;;5139452;27;20046;-54
2023/06/13 12:49:48;;;;;;;4.50;1.05;;;26.60;60.30;;;;;;5158200;27;20038;-52
2023/06/13 12:52:15;;;;;;;2.47;0.80;;;26.60;60.40;;;;;;5157934;27;20042;-51
2023/06/13 12:54:41;;;;;;;6.55;1.52;;;26.60;60.60;;;;;;5157857;27;20049;-53